sensor_id;sensor_type;location;lat;lon;timestamp;temperature;humidity
18339;DHT22;9295;44.484;11.240;2022-09-09T00:01:28;22.00;99.90
18339;DHT22;9295;44.484;11.240;2022-09-09T00:04:09;22.00;99.90
18339;DHT22;9295;44.484;11.240;2022-09-09T00:06:45;22.00;99.90
18339;DHT22;9295;44.484;11.240;2022-09-09T00:09:17;21.90;99.90
18339;DHT22;9295;44.484;11.240;2022-09-09T00:11:50;21.80;99.90
18339;DHT22;9295;44.484;11.240;2022-09-09T00:14:25;21.80;99.90
18339;DHT22;9295;44.484;11.240;2022-09-09T00:17:00;21.70;99.90
18339;DHT22;9295;44.484;11.240;2022-09-09T00:19:35;21.70;99.90
18339;DHT22;9295;44.484;11.240;2022-09-09T00:22:14;21.60;99.90
18339;DHT22;9295;44.484;11.240;2022-09-09T00:24:44;21.60;99.90
18339;DHT22;9295;44.484;11.240;2022-09-09T00:27:23;21.50;99.90
18339;DHT22;9295;44.484;11.240;2022-09-09T00:30:02;21.50;99.90
18339;DHT22;9295;44.484;11.240;2022-09-09T00:32:33;21.40;99.90
18339;DHT22;9295;44.484;11.240;2022-09-09T00:35:14;21.30;99.90
18339;DHT22;9295;44.484;11.240;2022-09-09T00:37:46;21.30;99.90
18339;DHT22;9295;44.484;11.240;2022-09-09T00:40:22;21.30;99.90
18339;DHT22;9295;44.484;11.240;2022-09-09T00:43:06;21.20;99.90
18339;DHT22;9295;44.484;11.240;2022-09-09T00:48:41;21.20;99.90
18339;DHT22;9295;44.484;11.240;2022-09-09T00:51:16;21.20;99.90
18339;DHT22;9295;44.484;11.240;2022-09-09T00:54:07;21.20;99.90
18339;DHT22;9295;44.484;11.240;2022-09-09T00:56:40;21.10;99.90
18339;DHT22;9295;44.484;11.240;2022-09-09T00:59:25;21.00;99.90
18339;DHT22;9295;44.484;11.240;2022-09-09T01:01:56;21.00;99.90
18339;DHT22;9295;44.484;11.240;2022-09-09T01:04:28;20.90;99.90
18339;DHT22;9295;44.484;11.240;2022-09-09T01:07:03;20.80;99.90
18339;DHT22;9295;44.484;11.240;2022-09-09T01:09:46;20.60;99.90
18339;DHT22;9295;44.484;11.240;2022-09-09T01:12:34;20.50;99.90
18339;DHT22;9295;44.484;11.240;2022-09-09T01:15:15;20.50;99.90
18339;DHT22;9295;44.484;11.240;2022-09-09T01:17:54;20.60;99.90
18339;DHT22;9295;44.484;11.240;2022-09-09T01:20:29;20.60;99.90
18339;DHT22;9295;44.484;11.240;2022-09-09T01:23:12;20.60;99.90
18339;DHT22;9295;44.484;11.240;2022-09-09T01:26:19;20.60;99.90
18339;DHT22;9295;44.484;11.240;2022-09-09T01:28:51;20.70;99.90
18339;DHT22;9295;44.484;11.240;2022-09-09T01:31:31;20.70;99.90
18339;DHT22;9295;44.484;11.240;2022-09-09T01:34:00;20.70;99.90
18339;DHT22;9295;44.484;11.240;2022-09-09T01:36:34;20.60;99.90
18339;DHT22;9295;44.484;11.240;2022-09-09T01:39:06;20.50;99.90
18339;DHT22;9295;44.484;11.240;2022-09-09T01:41:37;20.40;99.90
18339;DHT22;9295;44.484;11.240;2022-09-09T01:44:11;20.30;99.90
18339;DHT22;9295;44.484;11.240;2022-09-09T01:46:43;20.30;99.90
18339;DHT22;9295;44.484;11.240;2022-09-09T01:49:18;20.20;99.90
18339;DHT22;9295;44.484;11.240;2022-09-09T01:51:49;20.10;99.90
18339;DHT22;9295;44.484;11.240;2022-09-09T01:54:26;20.10;99.90
18339;DHT22;9295;44.484;11.240;2022-09-09T01:57:05;20.10;99.90
18339;DHT22;9295;44.484;11.240;2022-09-09T01:59:48;20.10;99.90
18339;DHT22;9295;44.484;11.240;2022-09-09T02:02:22;20.10;99.90
18339;DHT22;9295;44.484;11.240;2022-09-09T02:05:20;20.10;99.90
18339;DHT22;9295;44.484;11.240;2022-09-09T02:07:57;20.00;99.90
18339;DHT22;9295;44.484;11.240;2022-09-09T02:10:44;19.90;99.90
18339;DHT22;9295;44.484;11.240;2022-09-09T02:13:26;19.90;99.90
18339;DHT22;9295;44.484;11.240;2022-09-09T02:15:57;19.80;99.90
18339;DHT22;9295;44.484;11.240;2022-09-09T02:18:32;19.80;99.90
18339;DHT22;9295;44.484;11.240;2022-09-09T02:21:03;19.80;99.90
18339;DHT22;9295;44.484;11.240;2022-09-09T02:23:32;19.70;99.90
18339;DHT22;9295;44.484;11.240;2022-09-09T02:26:03;19.70;99.90
18339;DHT22;9295;44.484;11.240;2022-09-09T02:28:34;19.70;99.90
18339;DHT22;9295;44.484;11.240;2022-09-09T02:31:05;19.60;99.90
18339;DHT22;9295;44.484;11.240;2022-09-09T02:33:43;19.60;99.90
18339;DHT22;9295;44.484;11.240;2022-09-09T02:36:14;19.60;99.90
18339;DHT22;9295;44.484;11.240;2022-09-09T02:38:47;19.70;99.90
18339;DHT22;9295;44.484;11.240;2022-09-09T02:41:26;19.70;99.90
18339;DHT22;9295;44.484;11.240;2022-09-09T02:43:57;19.60;99.90
18339;DHT22;9295;44.484;11.240;2022-09-09T02:46:36;19.50;99.90
18339;DHT22;9295;44.484;11.240;2022-09-09T02:49:09;19.40;99.90
18339;DHT22;9295;44.484;11.240;2022-09-09T02:51:47;19.40;99.90
18339;DHT22;9295;44.484;11.240;2022-09-09T02:54:25;19.30;99.90
18339;DHT22;9295;44.484;11.240;2022-09-09T02:56:55;19.30;99.90
18339;DHT22;9295;44.484;11.240;2022-09-09T02:59:35;19.20;99.90
18339;DHT22;9295;44.484;11.240;2022-09-09T03:02:06;19.20;99.90
18339;DHT22;9295;44.484;11.240;2022-09-09T03:04:35;19.10;99.90
18339;DHT22;9295;44.484;11.240;2022-09-09T03:07:04;19.10;99.90
18339;DHT22;9295;44.484;11.240;2022-09-09T03:09:32;19.10;99.90
18339;DHT22;9295;44.484;11.240;2022-09-09T03:12:01;19.10;99.90
18339;DHT22;9295;44.484;11.240;2022-09-09T03:14:35;19.10;99.90
18339;DHT22;9295;44.484;11.240;2022-09-09T03:17:03;19.10;99.90
18339;DHT22;9295;44.484;11.240;2022-09-09T03:19:37;19.00;99.90
18339;DHT22;9295;44.484;11.240;2022-09-09T03:22:10;18.90;99.90
18339;DHT22;9295;44.484;11.240;2022-09-09T03:24:41;18.80;99.90
18339;DHT22;9295;44.484;11.240;2022-09-09T03:27:09;18.80;99.90
18339;DHT22;9295;44.484;11.240;2022-09-09T03:29:40;18.80;99.90
18339;DHT22;9295;44.484;11.240;2022-09-09T03:32:13;18.70;99.90
18339;DHT22;9295;44.484;11.240;2022-09-09T03:34:42;18.70;99.90
18339;DHT22;9295;44.484;11.240;2022-09-09T03:37:13;18.70;99.90
18339;DHT22;9295;44.484;11.240;2022-09-09T03:39:41;18.70;99.90
18339;DHT22;9295;44.484;11.240;2022-09-09T03:42:12;18.80;99.90
18339;DHT22;9295;44.484;11.240;2022-09-09T03:44:42;18.80;99.90
18339;DHT22;9295;44.484;11.240;2022-09-09T03:47:11;18.90;99.90
18339;DHT22;9295;44.484;11.240;2022-09-09T03:49:41;18.80;99.90
18339;DHT22;9295;44.484;11.240;2022-09-09T03:52:09;18.80;99.90
18339;DHT22;9295;44.484;11.240;2022-09-09T03:54:38;18.70;99.90
18339;DHT22;9295;44.484;11.240;2022-09-09T03:57:10;18.70;99.90
18339;DHT22;9295;44.484;11.240;2022-09-09T03:59:39;18.70;99.90
18339;DHT22;9295;44.484;11.240;2022-09-09T04:02:09;18.70;99.90
18339;DHT22;9295;44.484;11.240;2022-09-09T04:04:38;18.60;99.90
18339;DHT22;9295;44.484;11.240;2022-09-09T04:07:06;18.60;99.90
18339;DHT22;9295;44.484;11.240;2022-09-09T04:09:35;18.60;99.90
18339;DHT22;9295;44.484;11.240;2022-09-09T04:12:03;18.60;99.90
18339;DHT22;9295;44.484;11.240;2022-09-09T04:14:34;18.60;99.90
18339;DHT22;9295;44.484;11.240;2022-09-09T04:17:05;18.60;99.90
18339;DHT22;9295;44.484;11.240;2022-09-09T04:19:35;18.50;99.90
18339;DHT22;9295;44.484;11.240;2022-09-09T04:22:04;18.50;99.90
18339;DHT22;9295;44.484;11.240;2022-09-09T04:24:32;18.50;99.90
18339;DHT22;9295;44.484;11.240;2022-09-09T04:27:02;18.50;99.90
18339;DHT22;9295;44.484;11.240;2022-09-09T04:29:33;18.40;99.90
18339;DHT22;9295;44.484;11.240;2022-09-09T04:32:03;18.40;99.90
18339;DHT22;9295;44.484;11.240;2022-09-09T04:34:32;18.40;99.90
18339;DHT22;9295;44.484;11.240;2022-09-09T04:37:02;18.40;99.90
18339;DHT22;9295;44.484;11.240;2022-09-09T04:39:33;18.40;99.90
18339;DHT22;9295;44.484;11.240;2022-09-09T04:42:02;18.30;99.90
18339;DHT22;9295;44.484;11.240;2022-09-09T04:44:31;18.30;99.90
18339;DHT22;9295;44.484;11.240;2022-09-09T04:46:59;18.40;99.90
18339;DHT22;9295;44.484;11.240;2022-09-09T04:49:28;18.40;99.90
18339;DHT22;9295;44.484;11.240;2022-09-09T04:51:58;18.40;99.90
18339;DHT22;9295;44.484;11.240;2022-09-09T04:54:29;18.40;99.90
18339;DHT22;9295;44.484;11.240;2022-09-09T04:56:57;18.50;99.90
18339;DHT22;9295;44.484;11.240;2022-09-09T04:59:26;18.50;99.90
18339;DHT22;9295;44.484;11.240;2022-09-09T05:01:59;18.50;99.90
18339;DHT22;9295;44.484;11.240;2022-09-09T05:04:30;18.50;99.90
18339;DHT22;9295;44.484;11.240;2022-09-09T05:07:00;18.60;99.90
18339;DHT22;9295;44.484;11.240;2022-09-09T05:09:29;18.70;99.90
18339;DHT22;9295;44.484;11.240;2022-09-09T05:11:58;18.80;99.90
18339;DHT22;9295;44.484;11.240;2022-09-09T05:14:31;18.90;99.90
18339;DHT22;9295;44.484;11.240;2022-09-09T05:17:01;18.80;99.90
18339;DHT22;9295;44.484;11.240;2022-09-09T05:19:29;18.80;99.90
18339;DHT22;9295;44.484;11.240;2022-09-09T05:21:58;18.80;99.90
18339;DHT22;9295;44.484;11.240;2022-09-09T05:24:37;18.90;99.90
18339;DHT22;9295;44.484;11.240;2022-09-09T05:27:05;18.90;99.90
18339;DHT22;9295;44.484;11.240;2022-09-09T05:29:34;18.90;99.90
18339;DHT22;9295;44.484;11.240;2022-09-09T05:32:05;18.90;99.90
18339;DHT22;9295;44.484;11.240;2022-09-09T05:34:35;19.00;99.90
18339;DHT22;9295;44.484;11.240;2022-09-09T05:37:04;19.00;99.90
18339;DHT22;9295;44.484;11.240;2022-09-09T05:39:37;19.10;99.90
18339;DHT22;9295;44.484;11.240;2022-09-09T05:42:06;19.20;99.90
18339;DHT22;9295;44.484;11.240;2022-09-09T05:44:34;19.30;99.90
18339;DHT22;9295;44.484;11.240;2022-09-09T05:47:04;19.40;99.90
18339;DHT22;9295;44.484;11.240;2022-09-09T05:49:34;19.60;99.90
18339;DHT22;9295;44.484;11.240;2022-09-09T05:52:02;19.70;99.90
18339;DHT22;9295;44.484;11.240;2022-09-09T05:54:32;19.90;99.90
18339;DHT22;9295;44.484;11.240;2022-09-09T05:57:03;20.10;99.90
18339;DHT22;9295;44.484;11.240;2022-09-09T05:59:34;21.10;99.90
18339;DHT22;9295;44.484;11.240;2022-09-09T06:02:07;22.40;99.90
18339;DHT22;9295;44.484;11.240;2022-09-09T06:04:37;23.60;99.90
18339;DHT22;9295;44.484;11.240;2022-09-09T06:07:05;24.50;99.90
18339;DHT22;9295;44.484;11.240;2022-09-09T06:09:37;25.30;99.90
18339;DHT22;9295;44.484;11.240;2022-09-09T06:12:08;25.90;99.90
18339;DHT22;9295;44.484;11.240;2022-09-09T06:14:38;26.50;99.90
18339;DHT22;9295;44.484;11.240;2022-09-09T06:17:12;27.00;99.90
18339;DHT22;9295;44.484;11.240;2022-09-09T06:19:41;27.50;99.90
18339;DHT22;9295;44.484;11.240;2022-09-09T06:22:09;28.00;99.90
18339;DHT22;9295;44.484;11.240;2022-09-09T06:24:39;28.40;99.90
18339;DHT22;9295;44.484;11.240;2022-09-09T06:27:09;28.70;99.90
18339;DHT22;9295;44.484;11.240;2022-09-09T06:29:37;29.00;99.90
18339;DHT22;9295;44.484;11.240;2022-09-09T06:32:07;29.30;99.90
18339;DHT22;9295;44.484;11.240;2022-09-09T06:34:36;29.50;99.90
18339;DHT22;9295;44.484;11.240;2022-09-09T06:37:07;29.70;99.90
18339;DHT22;9295;44.484;11.240;2022-09-09T06:39:40;29.90;99.90
18339;DHT22;9295;44.484;11.240;2022-09-09T06:42:10;29.60;99.90
18339;DHT22;9295;44.484;11.240;2022-09-09T06:45:09;28.80;99.90
18339;DHT22;9295;44.484;11.240;2022-09-09T06:47:48;28.00;99.90
18339;DHT22;9295;44.484;11.240;2022-09-09T06:50:18;27.40;99.90
18339;DHT22;9295;44.484;11.240;2022-09-09T06:52:49;27.10;99.90
18339;DHT22;9295;44.484;11.240;2022-09-09T06:55:18;26.80;99.90
18339;DHT22;9295;44.484;11.240;2022-09-09T06:57:49;26.70;99.90
18339;DHT22;9295;44.484;11.240;2022-09-09T07:00:22;26.50;99.90
18339;DHT22;9295;44.484;11.240;2022-09-09T07:02:51;26.40;99.90
18339;DHT22;9295;44.484;11.240;2022-09-09T07:05:20;26.40;99.90
18339;DHT22;9295;44.484;11.240;2022-09-09T07:07:48;26.40;99.90
18339;DHT22;9295;44.484;11.240;2022-09-09T07:10:19;26.40;99.90
18339;DHT22;9295;44.484;11.240;2022-09-09T07:12:51;26.50;99.90
18339;DHT22;9295;44.484;11.240;2022-09-09T07:15:23;26.50;99.90
18339;DHT22;9295;44.484;11.240;2022-09-09T07:17:53;26.60;99.90
18339;DHT22;9295;44.484;11.240;2022-09-09T07:20:21;26.70;99.90
18339;DHT22;9295;44.484;11.240;2022-09-09T07:22:54;26.80;99.90
18339;DHT22;9295;44.484;11.240;2022-09-09T07:25:23;26.90;99.90
18339;DHT22;9295;44.484;11.240;2022-09-09T07:27:53;26.90;99.90
18339;DHT22;9295;44.484;11.240;2022-09-09T07:30:21;27.10;99.90
18339;DHT22;9295;44.484;11.240;2022-09-09T07:32:54;27.20;99.90
18339;DHT22;9295;44.484;11.240;2022-09-09T07:35:24;27.20;99.90
18339;DHT22;9295;44.484;11.240;2022-09-09T07:37:54;27.30;99.90
18339;DHT22;9295;44.484;11.240;2022-09-09T07:40:23;27.40;99.90
18339;DHT22;9295;44.484;11.240;2022-09-09T07:42:54;27.50;99.90
18339;DHT22;9295;44.484;11.240;2022-09-09T07:45:22;27.50;99.90
18339;DHT22;9295;44.484;11.240;2022-09-09T07:47:51;27.50;99.90
18339;DHT22;9295;44.484;11.240;2022-09-09T07:50:20;27.50;99.90
18339;DHT22;9295;44.484;11.240;2022-09-09T07:52:50;27.60;99.90
18339;DHT22;9295;44.484;11.240;2022-09-09T07:55:19;27.60;99.90
18339;DHT22;9295;44.484;11.240;2022-09-09T07:57:48;27.80;99.90
18339;DHT22;9295;44.484;11.240;2022-09-09T08:00:18;27.80;99.90
18339;DHT22;9295;44.484;11.240;2022-09-09T08:02:53;27.80;99.90
18339;DHT22;9295;44.484;11.240;2022-09-09T08:05:22;27.90;99.90
18339;DHT22;9295;44.484;11.240;2022-09-09T08:07:50;28.00;99.90
18339;DHT22;9295;44.484;11.240;2022-09-09T08:10:22;28.00;99.90
18339;DHT22;9295;44.484;11.240;2022-09-09T08:12:52;28.00;99.90
18339;DHT22;9295;44.484;11.240;2022-09-09T08:15:43;28.00;99.90
18339;DHT22;9295;44.484;11.240;2022-09-09T08:18:13;28.00;99.90
18339;DHT22;9295;44.484;11.240;2022-09-09T08:20:41;28.00;99.90
18339;DHT22;9295;44.484;11.240;2022-09-09T08:23:09;28.10;99.90
18339;DHT22;9295;44.484;11.240;2022-09-09T08:25:38;28.30;99.90
18339;DHT22;9295;44.484;11.240;2022-09-09T08:28:06;28.30;99.90
18339;DHT22;9295;44.484;11.240;2022-09-09T08:30:36;28.20;99.90
18339;DHT22;9295;44.484;11.240;2022-09-09T08:33:06;28.20;99.90
18339;DHT22;9295;44.484;11.240;2022-09-09T08:35:37;28.10;99.90
18339;DHT22;9295;44.484;11.240;2022-09-09T08:38:06;28.10;99.90
18339;DHT22;9295;44.484;11.240;2022-09-09T08:40:45;28.00;99.90
18339;DHT22;9295;44.484;11.240;2022-09-09T08:43:19;28.00;99.90
18339;DHT22;9295;44.484;11.240;2022-09-09T08:45:57;28.10;99.90
18339;DHT22;9295;44.484;11.240;2022-09-09T08:48:48;28.00;99.90
18339;DHT22;9295;44.484;11.240;2022-09-09T08:51:20;27.70;99.90
18339;DHT22;9295;44.484;11.240;2022-09-09T08:53:51;27.80;99.90
18339;DHT22;9295;44.484;11.240;2022-09-09T08:56:27;28.00;99.90
18339;DHT22;9295;44.484;11.240;2022-09-09T08:59:00;28.00;99.90
18339;DHT22;9295;44.484;11.240;2022-09-09T09:01:44;28.00;99.90
18339;DHT22;9295;44.484;11.240;2022-09-09T09:04:52;28.00;99.90
18339;DHT22;9295;44.484;11.240;2022-09-09T09:07:39;28.00;99.90
18339;DHT22;9295;44.484;11.240;2022-09-09T09:10:19;28.00;99.90
18339;DHT22;9295;44.484;11.240;2022-09-09T09:13:13;28.00;99.90
18339;DHT22;9295;44.484;11.240;2022-09-09T09:15:52;28.00;99.90
18339;DHT22;9295;44.484;11.240;2022-09-09T09:18:22;28.10;99.90
18339;DHT22;9295;44.484;11.240;2022-09-09T09:21:00;28.00;99.90
18339;DHT22;9295;44.484;11.240;2022-09-09T09:23:37;28.00;99.90
18339;DHT22;9295;44.484;11.240;2022-09-09T09:26:09;28.00;99.90
18339;DHT22;9295;44.484;11.240;2022-09-09T09:28:40;28.10;99.90
18339;DHT22;9295;44.484;11.240;2022-09-09T09:31:14;28.10;99.90
18339;DHT22;9295;44.484;11.240;2022-09-09T09:33:48;28.20;99.90
18339;DHT22;9295;44.484;11.240;2022-09-09T09:36:21;28.30;99.90
18339;DHT22;9295;44.484;11.240;2022-09-09T09:38:54;28.20;99.90
18339;DHT22;9295;44.484;11.240;2022-09-09T09:41:44;28.20;99.90
18339;DHT22;9295;44.484;11.240;2022-09-09T09:44:25;28.00;99.90
18339;DHT22;9295;44.484;11.240;2022-09-09T09:47:06;27.80;99.90
18339;DHT22;9295;44.484;11.240;2022-09-09T09:49:36;27.50;99.90
18339;DHT22;9295;44.484;11.240;2022-09-09T09:52:12;27.40;99.90
18339;DHT22;9295;44.484;11.240;2022-09-09T09:54:42;27.40;99.90
18339;DHT22;9295;44.484;11.240;2022-09-09T09:57:12;27.30;99.90
18339;DHT22;9295;44.484;11.240;2022-09-09T09:59:46;27.30;99.90
18339;DHT22;9295;44.484;11.240;2022-09-09T10:02:23;27.40;99.90
18339;DHT22;9295;44.484;11.240;2022-09-09T10:05:12;27.60;99.90
18339;DHT22;9295;44.484;11.240;2022-09-09T10:07:45;27.80;99.90
18339;DHT22;9295;44.484;11.240;2022-09-09T10:10:20;27.80;99.90
18339;DHT22;9295;44.484;11.240;2022-09-09T10:12:59;27.70;99.90
18339;DHT22;9295;44.484;11.240;2022-09-09T10:15:38;27.70;99.90
18339;DHT22;9295;44.484;11.240;2022-09-09T10:21:20;27.70;99.90
18339;DHT22;9295;44.484;11.240;2022-09-09T10:24:14;27.60;99.90
18339;DHT22;9295;44.484;11.240;2022-09-09T10:26:56;27.70;99.90
18339;DHT22;9295;44.484;11.240;2022-09-09T10:29:43;27.70;99.90
18339;DHT22;9295;44.484;11.240;2022-09-09T10:32:33;27.70;99.90
18339;DHT22;9295;44.484;11.240;2022-09-09T10:35:12;27.90;99.90
18339;DHT22;9295;44.484;11.240;2022-09-09T10:38:16;28.00;99.90
18339;DHT22;9295;44.484;11.240;2022-09-09T10:41:00;27.90;99.90
18339;DHT22;9295;44.484;11.240;2022-09-09T10:43:46;27.90;99.90
18339;DHT22;9295;44.484;11.240;2022-09-09T10:46:30;28.00;99.90
18339;DHT22;9295;44.484;11.240;2022-09-09T10:49:16;28.10;99.90
18339;DHT22;9295;44.484;11.240;2022-09-09T10:51:57;28.10;99.90
18339;DHT22;9295;44.484;11.240;2022-09-09T10:54:40;28.10;99.90
18339;DHT22;9295;44.484;11.240;2022-09-09T10:57:20;28.10;99.90
18339;DHT22;9295;44.484;11.240;2022-09-09T10:59:53;28.10;99.90
18339;DHT22;9295;44.484;11.240;2022-09-09T11:02:27;28.10;99.90
18339;DHT22;9295;44.484;11.240;2022-09-09T11:05:00;28.00;99.90
18339;DHT22;9295;44.484;11.240;2022-09-09T11:07:34;28.00;99.90
18339;DHT22;9295;44.484;11.240;2022-09-09T11:10:16;28.10;99.90
18339;DHT22;9295;44.484;11.240;2022-09-09T11:12:49;28.10;99.90
18339;DHT22;9295;44.484;11.240;2022-09-09T11:15:23;28.10;99.90
18339;DHT22;9295;44.484;11.240;2022-09-09T11:17:55;28.20;99.90
18339;DHT22;9295;44.484;11.240;2022-09-09T11:20:25;28.20;99.90
18339;DHT22;9295;44.484;11.240;2022-09-09T11:22:57;28.20;99.90
18339;DHT22;9295;44.484;11.240;2022-09-09T11:25:32;28.20;99.90
18339;DHT22;9295;44.484;11.240;2022-09-09T11:28:23;28.10;99.90
18339;DHT22;9295;44.484;11.240;2022-09-09T11:31:06;28.10;99.90
18339;DHT22;9295;44.484;11.240;2022-09-09T11:34:03;28.00;99.90
18339;DHT22;9295;44.484;11.240;2022-09-09T11:36:59;28.10;99.90
18339;DHT22;9295;44.484;11.240;2022-09-09T11:42:27;28.00;99.90
18339;DHT22;9295;44.484;11.240;2022-09-09T11:44:57;27.90;99.90
18339;DHT22;9295;44.484;11.240;2022-09-09T11:47:36;27.90;99.90
18339;DHT22;9295;44.484;11.240;2022-09-09T11:50:08;27.80;99.90
18339;DHT22;9295;44.484;11.240;2022-09-09T11:52:40;27.90;99.90
18339;DHT22;9295;44.484;11.240;2022-09-09T11:55:19;28.00;99.90
18339;DHT22;9295;44.484;11.240;2022-09-09T11:57:58;28.10;99.90
18339;DHT22;9295;44.484;11.240;2022-09-09T12:00:38;28.00;99.90
18339;DHT22;9295;44.484;11.240;2022-09-09T12:03:32;27.90;99.90
18339;DHT22;9295;44.484;11.240;2022-09-09T12:06:11;28.00;99.90
18339;DHT22;9295;44.484;11.240;2022-09-09T12:08:45;27.80;99.90
18339;DHT22;9295;44.484;11.240;2022-09-09T12:11:24;27.80;99.90
18339;DHT22;9295;44.484;11.240;2022-09-09T12:13:56;28.00;99.90
18339;DHT22;9295;44.484;11.240;2022-09-09T12:16:33;28.10;99.90
18339;DHT22;9295;44.484;11.240;2022-09-09T12:19:04;28.20;99.80
18339;DHT22;9295;44.484;11.240;2022-09-09T12:21:37;28.20;99.90
18339;DHT22;9295;44.484;11.240;2022-09-09T12:24:09;28.20;99.90
18339;DHT22;9295;44.484;11.240;2022-09-09T12:26:43;28.40;99.90
18339;DHT22;9295;44.484;11.240;2022-09-09T12:29:24;28.40;99.90
18339;DHT22;9295;44.484;11.240;2022-09-09T12:31:59;28.50;99.90
18339;DHT22;9295;44.484;11.240;2022-09-09T12:34:39;28.30;99.90
18339;DHT22;9295;44.484;11.240;2022-09-09T12:37:16;28.10;99.90
18339;DHT22;9295;44.484;11.240;2022-09-09T12:39:50;28.10;99.90
18339;DHT22;9295;44.484;11.240;2022-09-09T12:42:21;28.10;99.90
18339;DHT22;9295;44.484;11.240;2022-09-09T12:44:54;28.20;99.90
18339;DHT22;9295;44.484;11.240;2022-09-09T12:47:30;28.30;99.90
18339;DHT22;9295;44.484;11.240;2022-09-09T12:50:02;28.30;99.90
18339;DHT22;9295;44.484;11.240;2022-09-09T12:52:32;28.20;99.90
18339;DHT22;9295;44.484;11.240;2022-09-09T12:55:06;28.30;99.90
18339;DHT22;9295;44.484;11.240;2022-09-09T12:57:38;28.40;99.90
18339;DHT22;9295;44.484;11.240;2022-09-09T13:00:13;28.40;99.90
18339;DHT22;9295;44.484;11.240;2022-09-09T13:02:49;28.30;99.90
18339;DHT22;9295;44.484;11.240;2022-09-09T13:05:21;28.40;99.90
18339;DHT22;9295;44.484;11.240;2022-09-09T13:07:50;28.50;99.90
18339;DHT22;9295;44.484;11.240;2022-09-09T13:10:24;28.40;99.90
18339;DHT22;9295;44.484;11.240;2022-09-09T13:13:15;28.40;99.90
18339;DHT22;9295;44.484;11.240;2022-09-09T13:15:50;28.40;99.90
18339;DHT22;9295;44.484;11.240;2022-09-09T13:18:23;28.50;99.90
18339;DHT22;9295;44.484;11.240;2022-09-09T13:20:52;28.50;99.90
18339;DHT22;9295;44.484;11.240;2022-09-09T13:23:20;28.50;99.90
18339;DHT22;9295;44.484;11.240;2022-09-09T13:25:59;28.40;99.90
18339;DHT22;9295;44.484;11.240;2022-09-09T13:28:29;28.60;99.90
18339;DHT22;9295;44.484;11.240;2022-09-09T13:31:01;28.50;99.90
18339;DHT22;9295;44.484;11.240;2022-09-09T13:33:33;28.60;99.90
18339;DHT22;9295;44.484;11.240;2022-09-09T13:36:06;28.40;99.90
18339;DHT22;9295;44.484;11.240;2022-09-09T13:38:37;28.30;99.90
18339;DHT22;9295;44.484;11.240;2022-09-09T13:41:07;28.30;99.90
18339;DHT22;9295;44.484;11.240;2022-09-09T13:43:37;28.40;99.90
18339;DHT22;9295;44.484;11.240;2022-09-09T13:46:24;28.30;99.90
18339;DHT22;9295;44.484;11.240;2022-09-09T13:48:57;28.30;99.90
18339;DHT22;9295;44.484;11.240;2022-09-09T13:51:46;28.30;99.90
18339;DHT22;9295;44.484;11.240;2022-09-09T13:54:17;28.30;99.90
18339;DHT22;9295;44.484;11.240;2022-09-09T13:56:46;28.20;99.90
18339;DHT22;9295;44.484;11.240;2022-09-09T13:59:19;28.20;99.90
18339;DHT22;9295;44.484;11.240;2022-09-09T14:01:48;28.10;99.90
18339;DHT22;9295;44.484;11.240;2022-09-09T14:04:20;28.00;99.90
18339;DHT22;9295;44.484;11.240;2022-09-09T14:06:49;28.10;99.90
18339;DHT22;9295;44.484;11.240;2022-09-09T14:09:18;28.00;99.90
18339;DHT22;9295;44.484;11.240;2022-09-09T14:11:46;28.00;99.90
18339;DHT22;9295;44.484;11.240;2022-09-09T14:14:15;27.90;99.90
18339;DHT22;9295;44.484;11.240;2022-09-09T14:16:44;28.00;99.90
18339;DHT22;9295;44.484;11.240;2022-09-09T14:19:12;28.00;99.90
18339;DHT22;9295;44.484;11.240;2022-09-09T14:21:42;28.10;99.90
18339;DHT22;9295;44.484;11.240;2022-09-09T14:24:10;28.10;99.90
18339;DHT22;9295;44.484;11.240;2022-09-09T14:26:39;28.00;99.90
18339;DHT22;9295;44.484;11.240;2022-09-09T14:29:07;28.00;99.90
18339;DHT22;9295;44.484;11.240;2022-09-09T14:31:36;27.90;99.90
18339;DHT22;9295;44.484;11.240;2022-09-09T14:34:04;27.90;99.90
18339;DHT22;9295;44.484;11.240;2022-09-09T14:36:33;27.90;99.90
18339;DHT22;9295;44.484;11.240;2022-09-09T14:39:03;27.80;99.90
18339;DHT22;9295;44.484;11.240;2022-09-09T14:41:35;27.80;99.90
18339;DHT22;9295;44.484;11.240;2022-09-09T14:44:03;27.80;99.90
18339;DHT22;9295;44.484;11.240;2022-09-09T14:46:32;27.70;99.90
18339;DHT22;9295;44.484;11.240;2022-09-09T14:49:00;27.70;99.90
18339;DHT22;9295;44.484;11.240;2022-09-09T14:51:29;27.60;99.90
18339;DHT22;9295;44.484;11.240;2022-09-09T14:53:58;27.60;99.90
18339;DHT22;9295;44.484;11.240;2022-09-09T14:56:32;27.60;99.90
18339;DHT22;9295;44.484;11.240;2022-09-09T14:59:02;27.60;99.90
18339;DHT22;9295;44.484;11.240;2022-09-09T15:01:32;27.60;99.90
18339;DHT22;9295;44.484;11.240;2022-09-09T15:04:05;27.60;99.90
18339;DHT22;9295;44.484;11.240;2022-09-09T15:06:35;27.70;99.90
18339;DHT22;9295;44.484;11.240;2022-09-09T15:09:05;27.80;99.90
18339;DHT22;9295;44.484;11.240;2022-09-09T15:11:36;27.80;99.90
18339;DHT22;9295;44.484;11.240;2022-09-09T15:14:07;27.90;99.90
18339;DHT22;9295;44.484;11.240;2022-09-09T15:16:37;27.90;99.90
18339;DHT22;9295;44.484;11.240;2022-09-09T15:19:06;27.90;99.90
18339;DHT22;9295;44.484;11.240;2022-09-09T15:21:40;28.00;99.90
18339;DHT22;9295;44.484;11.240;2022-09-09T15:24:11;28.00;99.90
18339;DHT22;9295;44.484;11.240;2022-09-09T15:26:45;28.10;99.90
18339;DHT22;9295;44.484;11.240;2022-09-09T15:29:13;27.80;99.90
18339;DHT22;9295;44.484;11.240;2022-09-09T15:31:42;27.50;99.90
18339;DHT22;9295;44.484;11.240;2022-09-09T15:34:10;27.50;99.90
18339;DHT22;9295;44.484;11.240;2022-09-09T15:36:42;27.30;99.90
18339;DHT22;9295;44.484;11.240;2022-09-09T15:39:12;27.20;99.90
18339;DHT22;9295;44.484;11.240;2022-09-09T15:41:43;27.10;99.90
18339;DHT22;9295;44.484;11.240;2022-09-09T15:44:13;26.90;99.90
18339;DHT22;9295;44.484;11.240;2022-09-09T15:46:44;26.80;99.90
18339;DHT22;9295;44.484;11.240;2022-09-09T15:49:14;26.80;99.90
18339;DHT22;9295;44.484;11.240;2022-09-09T15:51:46;26.60;99.90
18339;DHT22;9295;44.484;11.240;2022-09-09T15:54:16;26.40;99.90
18339;DHT22;9295;44.484;11.240;2022-09-09T15:56:51;26.30;99.90
18339;DHT22;9295;44.484;11.240;2022-09-09T15:59:24;26.10;99.90
18339;DHT22;9295;44.484;11.240;2022-09-09T16:01:52;26.00;99.90
18339;DHT22;9295;44.484;11.240;2022-09-09T16:04:23;25.90;99.90
18339;DHT22;9295;44.484;11.240;2022-09-09T16:06:52;25.80;99.90
18339;DHT22;9295;44.484;11.240;2022-09-09T16:09:22;25.80;99.90
18339;DHT22;9295;44.484;11.240;2022-09-09T16:11:51;25.90;99.90
18339;DHT22;9295;44.484;11.240;2022-09-09T16:14:20;25.90;99.90
18339;DHT22;9295;44.484;11.240;2022-09-09T16:16:51;25.90;99.90
18339;DHT22;9295;44.484;11.240;2022-09-09T16:19:19;25.90;99.90